Latest Coastal Weather Observations for Mallacoota

IDV60701

Issued at 1:11 pm EST Friday 31 July 2015 (issued every 10 minutes, with the page automatically refreshed every 10 minutes)

About coastal observations | Map of coastal stations | Coastal observations for VIC | Marine services | Other Formats
Station Details ID: 084084 Name: MALLACOOTA Lat: -37.60 Lon: 149.73 Height: 22.0 m
Data from the previous 72 hours. | See also: Recent months at Mallacoota
Date/Time
EST
Temp

°C
Wind Pressure Rain
since 9am
mm
Weather Cloud Vis
km
Sea
Height
m
Swell
Dir
 
Speed
knots
Gust
knots
hPa Trend Height
m
Period
s
Dir
31/01:00pm 12.5 WSW 7 12 1019.6 - 0.0 - - - - - - -
31/12:30pm 12.4 W 5 8 1019.7 - 0.0 - - - - - - -
31/12:00pm 11.1 WSW 6 9 1020.3 - 0.0 - - - - - - -
31/11:30am 11.7 WSW 6 13 1020.7 - 0.0 - - - - - - -
31/11:00am 12.7 WNW 8 13 1021.0 - 0.0 - - - - - - -
31/10:30am 11.8 W 7 11 1021.1 - 0.0 - - - - - - -
31/10:00am 11.7 W 7 12 1020.6 - 0.0 - - - - - - -
31/09:30am 10.9 W 7 14 1020.5 - 0.0 - - - - - - -
31/09:00am 11.0 W 8 14 1020.2 - 0.0 - - - - - - -
31/08:30am 9.7 W 6 10 1020.2 - 0.0 - - - - - - -
31/08:00am 9.2 WNW 6 9 1019.9 - 0.0 - - - - - - -
31/07:30am 9.3 W 6 9 1019.5 - 0.0 - - - - - - -
31/07:00am 8.9 WNW 5 7 1019.0 - 0.0 - - - - - - -
31/06:30am 9.4 W 5 7 1018.4 - 0.0 - - - - - - -
31/06:00am 10.0 W 6 9 1017.9 - 0.0 - - - - - - -
31/05:30am 10.6 WSW 7 13 1017.6 - 0.0 - - - - - - -
31/05:00am 10.8 WSW 7 11 1017.3 - 0.0 - - - - - - -
31/04:30am 10.7 WSW 8 13 1016.9 - 0.0 - - - - - - -
31/04:00am 10.8 WSW 10 17 1016.2 - 0.0 - - - - - - -
31/03:30am 10.9 WSW 9 17 1016.0 - 0.0 - - - - - - -
31/03:00am 11.3 WSW 10 17 1015.5 - 0.0 - - - - - - -
31/02:30am 12.2 SW 9 16 1015.5 - 0.0 - - - - - - -
31/02:00am 10.9 WSW 6 10 1015.0 - 0.0 - - - - - - -
31/01:30am 8.8 W 4 8 1014.8 - 0.0 - - - - - - -
31/01:00am 8.5 WNW 5 7 1014.5 - 0.0 - - - - - - -
31/12:30am 8.2 WNW 4 5 1014.0 - 0.0 - - - - - - -
31/12:00am 8.8 WNW 5 6 1013.8 - 0.0 - - - - - - -
 
Date/Time
EST
Temp

°C
Wind Pressure Rain
since 9am
mm
Weather Cloud Vis
km
Sea
Height
m
Swell
Dir
 
Speed
knots
Gust
knots
hPa Trend Height
m
Period
s
Dir
30/11:30pm 9.4 WNW 4 5 1013.7 - 0.0 - - - - - - -
30/11:00pm 9.7 WNW 3 5 1013.5 - 0.0 - - - - - - -
30/10:30pm 11.0 WNW 5 7 1013.0 - 0.0 - - - - - - -
30/10:00pm 10.6 NNW 4 6 1012.7 - 0.0 - - - - - - -
30/09:30pm 11.1 NNW 5 7 1012.5 - 0.0 - - - - - - -
30/09:00pm 10.8 NNW 5 8 1012.2 - 0.0 - - - - - - -
30/08:30pm 10.5 NNW 7 10 1012.4 - 0.0 - - - - - - -
30/08:00pm 10.6 NW 6 7 1012.4 - 0.0 - - - - - - -
30/07:30pm 10.8 NNW 8 11 1012.3 - 0.0 - - - - - - -
30/07:00pm 10.8 NNW 6 9 1012.8 - 0.0 - - - - - - -
30/06:30pm 10.8 NNW 5 7 1013.3 - 0.0 - - - - - - -
30/06:00pm 11.0 NNW 5 7 1013.5 - 0.0 - - - - - - -
30/05:30pm 10.9 NNW 4 6 1013.9 - 0.0 - - - - - - -
30/05:00pm 10.7 N 4 6 1013.7 - 0.0 - - - - - - -
30/04:30pm 11.5 NNE 5 6 1013.9 - 0.0 - - - - - - -
30/04:00pm 12.7 NNE 7 10 1014.2 - 0.0 - - - - - - -
30/03:30pm 12.9 NNE 5 7 1014.5 - 0.0 - - - - - - -
30/03:00pm 12.7 NE 6 11 1014.6 - 0.0 - - - - - - -
30/02:30pm 12.8 ENE 10 13 1015.3 - 0.0 - - - - - - -
30/02:00pm 12.7 ENE 8 10 1016.0 - 0.0 - - - - - - -
30/01:30pm 13.9 NE 7 10 1016.6 - 0.0 - - - - - - -
30/01:00pm 15.1 NNE 5 9 1017.5 - 0.0 - - - - - - -
30/12:30pm 13.5 ESE 4 7 1018.4 - 0.0 - - - - - - -
30/12:00pm 12.9 E 4 7 1019.3 - 0.0 - - - - - - -
30/11:30am 12.8 ENE 5 6 1019.8 - 0.0 - - - - - - -
30/11:00am 12.6 ENE 5 6 1020.1 - 0.0 - - - - - - -
30/10:30am 12.1 N 3 5 1020.7 - 0.0 - - - - - - -
30/10:00am 11.0 N 4 5 1021.0 - 0.0 - - - - - - -
30/09:30am 9.3 NNW 4 6 1021.6 - 0.0 - - - - - - -
30/09:00am 7.7 NW 6 7 1022.2 - 0.0 - - - - - - -
30/08:30am 5.9 NNW 7 9 1022.1 - 0.0 - - - - - - -
30/08:00am 4.6 NNW 6 8 1022.5 - 0.0 - - - - - - -
30/07:30am 4.5 NNW 5 7 1022.6 - 0.0 - - - - - - -
30/07:00am 4.2 NW 5 6 1022.6 - 0.0 - - - - - - -
30/06:30am 4.1 WNW 4 6 1022.7 - 0.0 - - - - - - -
30/06:00am 4.5 WNW 3 6 1022.9 - 0.0 - - - - - - -
30/05:30am 5.1 N 4 7 1022.8 - 0.0 - - - - - - -
30/05:00am 5.4 SW 3 5 1022.9 - 0.0 - - - - - - -
30/04:30am 6.1 NW 5 7 1023.2 - 0.0 - - - - - - -
30/04:00am 5.9 WNW 7 9 1023.5 - 0.0 - - - - - - -
30/03:30am 5.8 WNW 7 9 1023.8 - 0.0 - - - - - - -
30/03:00am 6.0 WNW 7 9 1024.1 - 0.0 - - - - - - -
30/02:30am 6.8 WNW 7 8 1024.6 - 0.0 - - - - - - -
30/02:00am 6.9 WNW 6 7 1025.0 - 0.0 - - - - - - -
30/01:30am 7.4 NW 5 8 1025.3 - 0.0 - - - - - - -
30/01:00am 8.1 NW 7 8 1025.8 - 0.0 - - - - - - -
30/12:30am 7.5 N 6 8 1026.1 - 0.0 - - - - - - -
30/12:00am 7.5 NW 6 8 1027.1 - 0.0 - - - - - - -
 
Date/Time
EST
Temp

°C
Wind Pressure Rain
since 9am
mm
Weather Cloud Vis
km
Sea
Height
m
Swell
Dir
 
Speed
knots
Gust
knots
hPa Trend Height
m
Period
s
Dir
29/11:30pm 8.0 WNW 5 7 1027.5 - 0.0 - - - - - - -
29/11:00pm 8.2 NW 5 7 1027.6 - 0.0 - - - - - - -
29/10:30pm 8.2 NNW 6 8 1027.6 - 0.0 - - - - - - -
29/10:00pm 7.5 NW 5 6 1028.0 - 0.0 - - - - - - -
29/09:30pm 7.3 WNW 5 7 1028.5 - 0.0 - - - - - - -
29/09:00pm 7.8 NW 2 3 1028.6 - 0.0 - - - - - - -
29/08:30pm 7.9 NNW 3 5 1028.7 - 0.0 - - - - - - -
29/08:00pm 9.0 N 4 5 1029.0 - 0.0 - - - - - - -
29/07:30pm 8.8 N 4 5 1029.2 - 0.0 - - - - - - -
29/07:00pm 9.3 N 4 5 1029.4 - 0.0 - - - - - - -
29/06:30pm 9.7 N 3 4 1029.3 - 0.0 - - - - - - -
29/06:00pm 10.0 W 1 4 1029.3 - 0.0 - - - - - - -
29/05:30pm 10.5 CALM 0 0 1029.4 - 0.0 - - - - - - -
29/05:00pm 11.0 SSE 1 4 1029.4 - 0.0 - - - - - - -
29/04:30pm 12.1 SE 5 6 1029.0 - 0.0 - - - - - - -
29/04:00pm 12.4 SSE 4 6 1029.4 - 0.0 - - - - - - -
29/03:30pm 12.7 S 6 9 1029.5 - 0.0 - - - - - - -
29/03:00pm 13.3 S 7 9 1029.7 - 0.0 - - - - - - -
29/02:30pm 13.0 S 7 9 1029.4 - 0.0 - - - - - - -
29/02:00pm 13.1 S 6 10 1029.5 - 0.0 - - - - - - -
29/01:30pm 13.2 S 8 10 1030.0 - 0.0 - - - - - - -
29/01:00pm 13.2 S 8 9 1030.5 - 0.0 - - - - - - -
29/12:30pm 13.2 S 6 9 1031.3 - 0.0 - - - - - - -
29/12:00pm 13.4 SE 5 6 1031.8 - 0.0 - - - - - - -
29/11:30am 13.8 S 4 6 1032.3 - 0.0 - - - - - - -
29/11:00am 13.2 SW 5 8 1032.8 - 0.0 - - - - - - -
29/10:30am 13.0 W 4 6 1033.1 - 0.0 - - - - - - -
29/10:00am 12.7 WNW 5 7 1033.5 - 0.0 - - - - - - -
29/09:30am 11.4 WNW 4 6 1033.7 - 0.0 - - - - - - -
29/09:00am 10.4 NW 3 6 1034.0 - 0.0 - - - - - - -
29/08:30am 8.7 WNW 5 7 1033.8 - 0.0 - - - - - - -
29/08:00am 7.8 WNW 6 7 1033.7 - 0.0 - - - - - - -
29/07:30am 7.1 WNW 7 10 1033.5 - 0.0 - - - - - - -
29/07:00am 6.5 WNW 5 7 1033.1 - 0.0 - - - - - - -
29/06:30am 6.3 WNW 5 8 1032.8 - 0.0 - - - - - - -
29/06:00am 6.7 WNW 5 8 1032.8 - 0.0 - - - - - - -
29/05:30am 6.7 NW 4 6 1032.5 - 0.0 - - - - - - -
29/05:00am 6.9 WNW 5 7 1032.4 - 0.0 - - - - - - -
29/04:30am 7.2 W 5 8 1032.4 - 0.0 - - - - - - -
29/04:00am 7.7 WNW 6 10 1032.3 - 0.0 - - - - - - -
29/03:30am 8.1 WNW 6 10 1032.3 - 0.0 - - - - - - -
29/03:00am 8.3 W 6 9 1032.4 - 0.0 - - - - - - -
29/02:30am 8.5 W 7 12 1032.4 - 0.0 - - - - - - -
29/02:00am 8.8 W 7 13 1032.5 - 0.0 - - - - - - -
29/01:30am 9.1 W 8 14 1032.6 - 0.0 - - - - - - -
29/01:00am 9.3 W 9 14 1032.7 - 0.0 - - - - - - -
29/12:30am 9.4 W 8 15 1032.5 - 0.0 - - - - - - -
29/12:00am 9.5 W 8 14 1032.8 - 0.0 - - - - - - -
 
Date/Time
EST
Temp

°C
Wind Pressure Rain
since 9am
mm
Weather Cloud Vis
km
Sea
Height
m
Swell
Dir
 
Speed
knots
Gust
knots
hPa Trend Height
m
Period
s
Dir
28/11:30pm 9.3 W 7 12 1032.8 - 0.0 - - - - - - -
28/11:00pm 9.3 W 8 13 1032.7 - 0.0 - - - - - - -
28/10:30pm 9.7 W 8 14 1032.6 - 0.0 - - - - - - -
28/10:00pm 10.1 W 8 13 1032.6 - 0.0 - - - - - - -
28/09:30pm 10.0 WNW 8 13 1032.6 - 0.0 - - - - - - -
28/09:00pm 10.4 W 7 11 1032.8 - 0.0 - - - - - - -
28/08:30pm 10.6 W 6 11 1032.5 - 0.0 - - - - - - -
28/08:00pm 10.6 W 7 15 1032.4 - 0.0 - - - - - - -
28/07:30pm 10.8 W 9 15 1032.0 - 0.0 - - - - - - -
28/07:00pm 10.8 W 9 15 1031.6 - 0.0 - - - - - - -
28/06:30pm 10.9 WSW 9 16 1031.2 - 0.0 - - - - - - -
28/06:00pm 11.2 WSW 9 17 1031.2 - 0.0 - - - - - - -
28/05:30pm 11.6 WSW 10 16 1030.9 - 0.0 - - - - - - -
28/05:00pm 11.8 WSW 12 20 1030.6 - 0.0 - - - - - - -
28/04:30pm 12.1 WSW 9 20 1030.4 - 0.0 - - - - - - -
28/04:00pm 12.7 WSW 10 20 1030.3 - 0.0 - - - - - - -
28/03:30pm 12.9 WSW 13 23 1030.3 - 0.0 - - - - - - -
28/03:00pm 13.3 WSW 13 23 1030.2 - 0.0 - - - - - - -
28/02:30pm 13.6 WSW 11 19 1029.9 - 0.0 - - - - - - -
28/02:00pm 13.5 WSW 13 22 1030.0 - 0.0 - - - - - - -
28/01:30pm 14.3 WSW 13 22 1030.1 - 0.0 - - - - - - -

Other Formats:

Comma delimited format used in spreadsheet applications
http://www.bom.gov.au/fwo/IDV60701/IDV60701.94935.axf

JavaScript Object Notation format (JSON) in row-major order
http://www.bom.gov.au/fwo/IDV60701/IDV60701.94935.json